Time;durP1;ratioP1;P1;durP2;ratioP2;P2;SDS_P1;SDS_P2;PMS_P1;PMS_P2;Temp;Humidity;BMP_temperature;BMP_pressure;BME280_temperature;BME280_humidity;BME280_pressure;Samples;Min_cycle;Max_cycle;Signal;HPM_P1;HPM_P2
2023/06/16 00:01:59;;;;;;;8.43;3.83;;;14.10;99.90;;;;;;7342279;32;20103;-57
2023/06/16 00:06:14;;;;;;;7.90;3.78;;;13.90;99.90;;;;;;7350629;32;20171;-57
2023/06/16 00:10:16;;;;;;;5.85;3.30;;;13.80;99.90;;;;;;7349888;32;20133;-57
2023/06/16 00:14:18;;;;;;;5.15;4.00;;;13.50;99.90;;;;;;7346905;32;20284;-57
2023/06/16 00:18:20;;;;;;;4.87;3.45;;;13.50;99.90;;;;;;7349445;32;20108;-57
2023/06/16 00:22:25;;;;;;;9.15;3.78;;;13.40;99.90;;;;;;7348935;32;20896;-58
2023/06/16 00:26:27;;;;;;;6.93;3.42;;;13.30;99.90;;;;;;7347019;32;20538;-57
2023/06/16 00:30:28;;;;;;;6.60;3.78;;;13.20;99.90;;;;;;7344770;32;20134;-56
2023/06/16 00:34:30;;;;;;;5.53;3.62;;;13.20;99.90;;;;;;7345266;32;20191;-55
2023/06/16 00:38:33;;;;;;;4.15;3.35;;;13.10;99.90;;;;;;7347364;32;20118;-57
2023/06/16 00:42:34;;;;;;;6.65;3.85;;;13.10;99.90;;;;;;7348025;32;20145;-57
2023/06/16 00:46:36;;;;;;;9.20;4.03;;;12.90;99.90;;;;;;7343447;32;20580;-56
2023/06/16 00:50:38;;;;;;;6.43;3.97;;;12.90;99.90;;;;;;7344753;32;20142;-57
2023/06/16 00:54:40;;;;;;;6.35;3.87;;;12.90;99.90;;;;;;7345019;32;20129;-55
2023/06/16 00:58:43;;;;;;;8.18;4.22;;;12.80;99.90;;;;;;7347334;32;20198;-57
2023/06/16 01:02:45;;;;;;;8.32;3.53;;;12.70;99.90;;;;;;7345141;32;20816;-56
2023/06/16 01:06:57;;;;;;;6.80;4.05;;;12.60;99.90;;;;;;7344529;32;20667;-56
2023/06/16 01:11:20;;;;;;;8.13;3.42;;;12.50;99.90;;;;;;7340851;32;20218;-56
2023/06/16 01:15:25;;;;;;;4.65;3.60;;;12.50;99.90;;;;;;7344969;32;20226;-56
2023/06/16 01:19:33;;;;;;;9.23;3.87;;;12.40;99.90;;;;;;7344222;32;20416;-56
2023/06/16 01:24:01;;;;;;;6.50;4.30;;;12.40;99.90;;;;;;7341999;32;20108;-56
2023/06/16 01:28:05;;;;;;;6.15;3.80;;;12.30;99.90;;;;;;7345732;32;20571;-56
2023/06/16 01:32:08;;;;;;;6.60;4.05;;;12.30;99.90;;;;;;7347674;32;20119;-56
2023/06/16 01:36:10;;;;;;;5.65;3.42;;;12.10;99.90;;;;;;7342841;32;20423;-57
2023/06/16 01:40:13;;;;;;;9.60;4.10;;;12.10;99.90;;;;;;7338788;32;20302;-57
2023/06/16 01:44:16;;;;;;;5.55;4.22;;;12.00;99.90;;;;;;7341015;32;20134;-57
2023/06/16 01:48:20;;;;;;;5.57;4.12;;;12.00;99.90;;;;;;7343882;32;20326;-56
2023/06/16 01:52:22;;;;;;;7.07;4.10;;;11.90;99.90;;;;;;7343790;32;20514;-57
2023/06/16 01:56:24;;;;;;;5.43;4.50;;;11.90;99.90;;;;;;7342799;32;20156;-57
2023/06/16 02:00:30;;;;;;;6.43;3.97;;;11.90;99.90;;;;;;7343274;32;20150;-57
2023/06/16 02:04:35;;;;;;;9.75;4.35;;;11.90;99.90;;;;;;7344538;32;20131;-57
2023/06/16 02:08:40;;;;;;;7.55;4.15;;;11.80;99.90;;;;;;7335516;32;20138;-57
2023/06/16 02:12:42;;;;;;;8.25;4.07;;;11.80;99.90;;;;;;7341916;32;20115;-57
2023/06/16 02:16:44;;;;;;;8.52;4.15;;;11.70;99.90;;;;;;7342424;32;20099;-57
2023/06/16 02:20:46;;;;;;;10.23;4.47;;;11.60;99.90;;;;;;7344767;32;20285;-57
2023/06/16 02:24:48;;;;;;;6.72;4.28;;;11.70;99.90;;;;;;7345753;32;20131;-57
2023/06/16 02:28:51;;;;;;;5.68;3.70;;;11.80;99.90;;;;;;7337888;32;20344;-57
2023/06/16 02:32:52;;;;;;;5.45;3.80;;;11.60;99.90;;;;;;7343533;32;20783;-57
2023/06/16 02:37:04;;;;;;;7.68;3.85;;;11.60;99.90;;;;;;7343853;32;20521;-57
2023/06/16 02:41:06;;;;;;;6.18;3.90;;;11.40;99.90;;;;;;7340793;32;20744;-57
2023/06/16 02:45:13;;;;;;;7.35;4.28;;;11.40;99.90;;;;;;7343875;32;20809;-57
2023/06/16 02:49:19;;;;;;;6.97;4.35;;;11.40;99.90;;;;;;7341698;32;20547;-57
2023/06/16 02:53:20;;;;;;;6.25;4.12;;;11.50;99.90;;;;;;7339176;32;20134;-57
2023/06/16 02:57:22;;;;;;;8.23;4.07;;;11.40;99.90;;;;;;7343161;32;20231;-57
2023/06/16 03:01:28;;;;;;;6.78;3.95;;;11.30;99.90;;;;;;7344291;32;20147;-58
2023/06/16 03:05:31;;;;;;;5.85;4.40;;;11.30;99.90;;;;;;7343184;32;20146;-57
2023/06/16 03:09:33;;;;;;;7.93;4.20;;;11.30;99.90;;;;;;7334950;32;20246;-57
2023/06/16 03:13:34;;;;;;;5.93;4.22;;;11.30;99.90;;;;;;7343073;32;20271;-57
2023/06/16 03:17:36;;;;;;;7.62;4.18;;;11.20;99.90;;;;;;7342493;32;20714;-57
2023/06/16 03:21:39;;;;;;;9.15;4.80;;;11.10;99.90;;;;;;7344736;32;20425;-57
2023/06/16 03:25:41;;;;;;;7.20;4.35;;;11.10;99.90;;;;;;7340470;32;20320;-57
2023/06/16 03:29:43;;;;;;;7.72;4.85;;;11.10;99.90;;;;;;7338988;32;20639;-57
2023/06/16 03:33:45;;;;;;;5.78;4.35;;;11.10;99.90;;;;;;7341613;32;20194;-57
2023/06/16 03:37:47;;;;;;;7.65;4.00;;;11.00;99.90;;;;;;7342767;32;20189;-57
2023/06/16 03:41:48;;;;;;;10.35;4.43;;;11.00;99.90;;;;;;7340837;32;20638;-57
2023/06/16 03:45:50;;;;;;;6.47;3.85;;;11.10;99.90;;;;;;7342984;32;20232;-57
2023/06/16 03:49:53;;;;;;;6.82;4.10;;;11.10;99.90;;;;;;7340757;32;20799;-57
2023/06/16 03:53:55;;;;;;;9.82;4.30;;;11.10;99.90;;;;;;7345784;32;20246;-57
2023/06/16 03:57:57;;;;;;;5.85;4.35;;;11.10;99.90;;;;;;7345639;32;20119;-57
2023/06/16 04:02:06;;;;;;;6.25;3.97;;;11.10;99.90;;;;;;7342730;32;20111;-57
2023/06/16 04:06:08;;;;;;;7.32;4.70;;;11.20;99.90;;;;;;7345427;32;20112;-57
2023/06/16 04:10:10;;;;;;;7.90;4.40;;;11.20;99.90;;;;;;7344852;32;20627;-58
2023/06/16 04:14:11;;;;;;;5.47;3.80;;;11.30;99.90;;;;;;7344339;32;20503;-58
2023/06/16 04:18:13;;;;;;;8.60;4.00;;;11.40;99.90;;;;;;7345265;32;20226;-58
2023/06/16 04:22:16;;;;;;;8.35;4.18;;;11.40;99.90;;;;;;7343113;32;20147;-57
2023/06/16 04:26:18;;;;;;;6.93;4.20;;;11.40;99.90;;;;;;7342565;32;20856;-58
2023/06/16 04:30:22;;;;;;;6.85;3.97;;;11.50;99.90;;;;;;7343738;32;20230;-57
2023/06/16 04:34:24;;;;;;;6.43;4.00;;;11.70;99.90;;;;;;7342534;32;20226;-57
2023/06/16 04:38:25;;;;;;;7.57;3.97;;;11.80;99.90;;;;;;7345006;32;20528;-57
2023/06/16 04:42:28;;;;;;;6.60;4.10;;;12.00;99.90;;;;;;7346662;32;20590;-57
2023/06/16 04:46:30;;;;;;;8.32;4.35;;;12.20;99.90;;;;;;7342487;32;20311;-57
2023/06/16 04:50:32;;;;;;;6.20;4.03;;;12.50;99.90;;;;;;7341882;32;20119;-59
2023/06/16 04:54:35;;;;;;;7.43;3.83;;;12.80;99.90;;;;;;7346323;32;20107;-58
2023/06/16 04:58:36;;;;;;;9.68;4.03;;;13.30;99.90;;;;;;7346853;32;20235;-59
2023/06/16 05:02:40;;;;;;;6.37;4.00;;;13.80;99.90;;;;;;7342599;32;20108;-58
2023/06/16 05:06:42;;;;;;;6.90;3.70;;;14.40;99.90;;;;;;7346679;32;20107;-58
2023/06/16 05:10:44;;;;;;;5.12;4.00;;;14.90;99.90;;;;;;7342528;32;20194;-58
2023/06/16 05:14:46;;;;;;;5.80;3.85;;;15.50;99.90;;;;;;7344734;32;20133;-57
2023/06/16 05:18:48;;;;;;;8.25;3.87;;;16.20;99.90;;;;;;7345123;32;20107;-57
2023/06/16 05:22:50;;;;;;;6.62;3.97;;;16.40;99.90;;;;;;7341630;32;20324;-57
2023/06/16 05:26:52;;;;;;;7.45;4.22;;;16.60;99.90;;;;;;7348806;32;20130;-58
2023/06/16 05:30:53;;;;;;;6.75;3.70;;;16.70;99.90;;;;;;7342194;32;20584;-59
2023/06/16 05:34:56;;;;;;;5.37;3.80;;;16.80;99.90;;;;;;7345435;32;20146;-58
2023/06/16 05:38:58;;;;;;;6.82;3.90;;;16.60;99.90;;;;;;7346671;32;20107;-58
2023/06/16 05:42:59;;;;;;;4.80;3.53;;;16.30;99.90;;;;;;7342587;32;20116;-61
2023/06/16 05:47:02;;;;;;;7.30;3.95;;;16.20;99.90;;;;;;7344116;32;20107;-58
2023/06/16 05:51:04;;;;;;;7.40;4.05;;;16.30;99.90;;;;;;7348150;32;20513;-58
2023/06/16 05:55:06;;;;;;;7.65;4.15;;;16.40;99.90;;;;;;7351344;32;20123;-58
2023/06/16 05:59:08;;;;;;;6.75;3.80;;;16.50;99.90;;;;;;7343977;32;20518;-58
2023/06/16 06:03:10;;;;;;;5.95;4.00;;;16.60;99.90;;;;;;7344550;32;20107;-63
2023/06/16 06:07:12;;;;;;;4.45;3.37;;;16.80;99.90;;;;;;7345998;32;20108;-63
2023/06/16 06:11:14;;;;;;;8.45;3.70;;;17.10;99.90;;;;;;7342311;32;20187;-62
2023/06/16 06:15:17;;;;;;;4.62;3.45;;;17.40;99.90;;;;;;7344285;32;20226;-64
2023/06/16 06:19:21;;;;;;;5.93;3.70;;;17.60;99.90;;;;;;7350413;32;20247;-65
2023/06/16 06:23:22;;;;;;;5.28;3.80;;;18.00;99.90;;;;;;7345914;32;20160;-56
2023/06/16 06:27:24;;;;;;;5.50;3.78;;;18.40;99.90;;;;;;7348320;32;20235;-62
2023/06/16 06:31:26;;;;;;;7.03;3.85;;;18.50;99.90;;;;;;7343737;32;20251;-61
2023/06/16 06:35:27;;;;;;;5.70;3.03;;;18.60;99.90;;;;;;7351062;32;20102;-62
2023/06/16 06:39:29;;;;;;;7.97;3.75;;;18.50;99.90;;;;;;7348941;32;20103;-62
2023/06/16 06:43:31;;;;;;;5.97;3.83;;;18.80;99.90;;;;;;7345293;32;20175;-64
2023/06/16 06:47:33;;;;;;;5.40;3.20;;;19.10;99.90;;;;;;7339879;32;20270;-64
2023/06/16 06:51:37;;;;;;;7.40;3.40;;;19.40;99.90;;;;;;7346920;32;20136;-64
2023/06/16 06:55:38;;;;;;;5.80;3.47;;;19.50;99.90;;;;;;7354186;32;21114;-63
2023/06/16 06:59:41;;;;;;;5.85;3.58;;;19.80;99.90;;;;;;7349071;32;20157;-63
2023/06/16 07:03:42;;;;;;;4.37;3.00;;;20.10;99.90;;;;;;7348256;32;20182;-63
2023/06/16 07:07:45;;;;;;;5.18;3.12;;;20.30;99.90;;;;;;7347629;32;20257;-63
2023/06/16 07:11:47;;;;;;;4.78;3.28;;;20.20;99.90;;;;;;7347617;32;20122;-64
2023/06/16 07:15:49;;;;;;;4.20;3.00;;;20.40;99.90;;;;;;7349987;32;20103;-62
2023/06/16 07:19:51;;;;;;;5.82;3.10;;;20.50;99.90;;;;;;7342821;32;20193;-57
2023/06/16 07:23:52;;;;;;;5.32;3.12;;;20.60;99.90;;;;;;7320646;32;20333;-59
2023/06/16 07:27:57;;;;;;;4.65;2.60;;;20.60;99.90;;;;;;7341091;32;20577;-60
2023/06/16 07:31:59;;;;;;;5.80;2.78;;;21.00;99.90;;;;;;7330502;32;20241;-59
2023/06/16 07:36:00;;;;;;;4.07;2.85;;;21.40;99.90;;;;;;7335693;32;20277;-59
2023/06/16 07:40:06;;;;;;;5.20;2.53;;;21.30;99.50;;;;;;7338817;32;20139;-60
2023/06/16 07:44:08;;;;;;;20.52;3.53;;;21.50;96.10;;;;;;7344276;32;20194;-58
2023/06/16 07:48:10;;;;;;;22.80;3.40;;;21.70;95.80;;;;;;7343347;32;20228;-61
2023/06/16 07:52:13;;;;;;;21.55;3.33;;;21.40;92.70;;;;;;7330329;32;20194;-58
2023/06/16 07:56:18;;;;;;;4.00;2.30;;;21.50;92.80;;;;;;7332890;32;20464;-59
2023/06/16 08:00:20;;;;;;;30.08;4.05;;;22.00;90.10;;;;;;7342432;32;20201;-59
2023/06/16 08:04:24;;;;;;;5.30;2.47;;;22.20;82.70;;;;;;7346188;32;20212;-61
2023/06/16 08:08:27;;;;;;;14.63;3.15;;;22.40;79.20;;;;;;7339135;32;20111;-61
2023/06/16 08:12:29;;;;;;;7.47;2.75;;;22.60;79.80;;;;;;7337611;32;20210;-57
2023/06/16 08:16:30;;;;;;;6.68;2.62;;;22.80;74.60;;;;;;7338122;32;20679;-56
2023/06/16 08:20:32;;;;;;;6.62;2.80;;;23.20;75.30;;;;;;7338410;32;20811;-56
2023/06/16 08:24:34;;;;;;;21.75;3.92;;;23.50;80.50;;;;;;7333331;32;20907;-58
2023/06/16 08:28:40;;;;;;;24.42;3.87;;;23.60;75.50;;;;;;7342603;32;20781;-58
2023/06/16 08:32:41;;;;;;;15.88;3.53;;;23.60;73.20;;;;;;7337572;32;20683;-59
2023/06/16 08:36:43;;;;;;;3.67;2.90;;;24.40;72.30;;;;;;7338070;32;20241;-58
2023/06/16 08:40:46;;;;;;;4.82;2.62;;;24.50;67.90;;;;;;7328685;32;20222;-58
2023/06/16 08:44:50;;;;;;;4.65;2.72;;;24.80;67.40;;;;;;7337088;32;20226;-58
2023/06/16 08:48:52;;;;;;;4.07;2.50;;;24.50;67.70;;;;;;7332959;32;20562;-58
2023/06/16 08:52:57;;;;;;;4.90;2.45;;;25.10;67.00;;;;;;7328365;32;20107;-58
2023/06/16 08:57:01;;;;;;;4.68;2.60;;;25.60;65.90;;;;;;7326362;32;20258;-58
2023/06/16 09:01:04;;;;;;;3.95;2.80;;;26.00;63.20;;;;;;7335673;32;20111;-58
2023/06/16 09:05:07;;;;;;;4.80;2.70;;;26.10;63.80;;;;;;7347639;32;20194;-58
2023/06/16 09:09:09;;;;;;;5.75;3.20;;;26.20;60.70;;;;;;7347924;32;20494;-58
2023/06/16 09:13:14;;;;;;;5.90;2.62;;;26.40;61.60;;;;;;7350882;32;20119;-59
2023/06/16 09:17:22;;;;;;;4.55;2.60;;;26.30;60.00;;;;;;7348640;32;20559;-58
2023/06/16 09:21:25;;;;;;;5.37;2.78;;;27.00;61.70;;;;;;7346082;32;20166;-58
2023/06/16 09:25:34;;;;;;;5.03;2.62;;;27.10;58.00;;;;;;7355824;32;20316;-58
2023/06/16 09:29:37;;;;;;;5.30;2.67;;;27.30;58.20;;;;;;7354883;32;20509;-58
2023/06/16 09:33:42;;;;;;;3.95;2.95;;;27.50;57.90;;;;;;7352885;32;20131;-58
2023/06/16 09:37:45;;;;;;;7.87;3.35;;;27.70;59.80;;;;;;7352080;32;20107;-59
2023/06/16 09:41:48;;;;;;;4.93;2.90;;;28.00;59.70;;;;;;7352923;32;20197;-58
2023/06/16 09:45:57;;;;;;;5.47;2.80;;;27.80;55.40;;;;;;7352459;32;20197;-58
2023/06/16 09:49:59;;;;;;;5.37;2.90;;;28.20;56.70;;;;;;7352113;32;20124;-58
2023/06/16 09:54:01;;;;;;;5.90;2.97;;;28.60;55.00;;;;;;7343220;32;20586;-58
2023/06/16 09:58:03;;;;;;;4.95;3.50;;;28.40;52.50;;;;;;7344349;32;20347;-59
2023/06/16 10:02:05;;;;;;;7.22;3.10;;;27.60;53.20;;;;;;7333787;32;20202;-58
2023/06/16 10:06:18;;;;;;;5.60;3.05;;;27.70;54.50;;;;;;7339874;32;20253;-58
2023/06/16 10:10:25;;;;;;;6.55;3.35;;;28.60;56.40;;;;;;7335855;32;20174;-58
2023/06/16 10:14:33;;;;;;;6.03;3.00;;;29.20;56.30;;;;;;7334660;32;20190;-57
2023/06/16 10:18:37;;;;;;;4.25;3.30;;;29.40;53.40;;;;;;7338494;32;20756;-57
2023/06/16 10:22:38;;;;;;;5.12;3.00;;;28.80;53.10;;;;;;7332688;32;20186;-58
2023/06/16 10:26:41;;;;;;;5.80;3.10;;;28.30;51.00;;;;;;7340375;32;20655;-58
2023/06/16 10:30:43;;;;;;;4.60;2.62;;;28.20;53.70;;;;;;7343631;32;20247;-57
2023/06/16 10:34:49;;;;;;;4.80;3.10;;;28.90;54.80;;;;;;7344109;32;20100;-57
2023/06/16 10:39:06;;;;;;;5.35;3.47;;;29.20;50.30;;;;;;7348669;32;20151;-59
2023/06/16 10:43:22;;;;;;;5.15;2.78;;;28.80;49.80;;;;;;7342910;32;20103;-59
2023/06/16 10:47:27;;;;;;;3.45;3.00;;;29.00;52.10;;;;;;7345297;32;20128;-58
2023/06/16 10:51:40;;;;;;;4.95;3.15;;;29.30;49.60;;;;;;7346087;32;20170;-58
2023/06/16 10:55:44;;;;;;;5.12;2.95;;;29.20;48.90;;;;;;7343115;32;20168;-57
2023/06/16 10:59:55;;;;;;;6.12;2.90;;;29.30;50.30;;;;;;7348299;32;20133;-57
2023/06/16 11:04:03;;;;;;;3.97;2.90;;;29.50;50.50;;;;;;7353621;32;20234;-57
2023/06/16 11:08:13;;;;;;;4.37;2.90;;;29.70;51.70;;;;;;7349429;32;20253;-57
2023/06/16 11:12:15;;;;;;;5.82;3.00;;;29.60;52.50;;;;;;7350570;32;20331;-58
2023/06/16 11:16:17;;;;;;;3.72;3.00;;;29.30;48.80;;;;;;7348546;32;20152;-57
2023/06/16 11:20:20;;;;;;;4.50;3.40;;;29.80;52.60;;;;;;7343004;32;20132;-58
2023/06/16 11:24:23;;;;;;;5.50;2.90;;;29.00;47.90;;;;;;7343194;32;20161;-58
2023/06/16 11:28:25;;;;;;;4.57;2.97;;;29.00;50.20;;;;;;7346390;32;20261;-58
2023/06/16 11:32:28;;;;;;;3.80;3.05;;;29.30;51.70;;;;;;7356428;32;20862;-57
2023/06/16 11:36:32;;;;;;;6.55;3.40;;;29.40;51.30;;;;;;7343131;32;20195;-58
2023/06/16 11:40:35;;;;;;;5.53;3.35;;;29.30;48.30;;;;;;7344856;32;20803;-58
2023/06/16 11:44:36;;;;;;;6.87;3.22;;;29.40;49.00;;;;;;7344143;32;20173;-59
2023/06/16 11:48:38;;;;;;;7.37;3.42;;;29.10;48.50;;;;;;7338372;32;20251;-57
2023/06/16 11:52:41;;;;;;;9.93;3.80;;;29.60;49.60;;;;;;7341417;32;20288;-58
2023/06/16 11:56:42;;;;;;;9.10;3.40;;;29.40;48.40;;;;;;7343717;32;20208;-59
2023/06/16 12:00:46;;;;;;;3.40;3.10;;;29.40;49.70;;;;;;7341034;32;20161;-60
2023/06/16 12:04:48;;;;;;;6.40;3.03;;;29.80;47.90;;;;;;7344983;32;20561;-57
2023/06/16 12:08:54;;;;;;;4.70;3.33;;;30.20;48.00;;;;;;7337730;32;20262;-57
2023/06/16 12:12:56;;;;;;;8.80;3.20;;;30.70;46.30;;;;;;7342603;32;20110;-57
2023/06/16 12:16:58;;;;;;;4.50;3.22;;;30.80;44.00;;;;;;7339941;32;20147;-57
2023/06/16 12:21:19;;;;;;;7.55;3.40;;;31.00;46.30;;;;;;7347813;32;20171;-58
2023/06/16 12:25:22;;;;;;;6.85;3.35;;;31.10;46.70;;;;;;7348156;32;20149;-60
2023/06/16 12:29:30;;;;;;;5.72;3.28;;;31.10;48.50;;;;;;7345330;32;20143;-58
2023/06/16 12:33:36;;;;;;;7.47;3.47;;;31.40;45.50;;;;;;7349082;32;20185;-58
2023/06/16 12:37:41;;;;;;;6.80;3.47;;;30.40;46.40;;;;;;7343180;32;20475;-57
2023/06/16 12:42:00;;;;;;;6.00;2.93;;;29.40;47.70;;;;;;7344580;32;20222;-58
2023/06/16 12:46:02;;;;;;;3.95;3.25;;;30.40;49.00;;;;;;7338783;32;20111;-59
2023/06/16 12:50:05;;;;;;;3.87;3.12;;;31.00;47.60;;;;;;7350125;32;20142;-58
2023/06/16 12:54:11;;;;;;;7.32;3.20;;;31.30;46.60;;;;;;7349699;32;20545;-58
2023/06/16 12:58:13;;;;;;;6.28;3.30;;;32.10;46.50;;;;;;7345896;32;20114;-58
2023/06/16 13:02:15;;;;;;;7.50;3.28;;;32.20;44.20;;;;;;7344845;32;20107;-58
2023/06/16 13:06:18;;;;;;;5.95;3.22;;;31.90;45.00;;;;;;7341336;32;20407;-58
2023/06/16 13:10:21;;;;;;;6.12;3.60;;;31.60;46.10;;;;;;7336866;32;20275;-59
2023/06/16 13:14:24;;;;;;;7.20;4.05;;;30.10;47.90;;;;;;7348467;32;20341;-58
2023/06/16 13:18:26;;;;;;;4.68;3.20;;;29.30;48.30;;;;;;7349214;32;20423;-58
2023/06/16 13:22:28;;;;;;;6.12;4.00;;;28.50;47.80;;;;;;7345243;32;20198;-58
2023/06/16 13:26:30;;;;;;;4.80;3.87;;;28.30;51.40;;;;;;7342844;32;20213;-58
2023/06/16 13:30:32;;;;;;;7.50;3.80;;;28.60;49.00;;;;;;7348300;32;20694;-58
2023/06/16 13:34:33;;;;;;;8.52;4.07;;;29.30;50.20;;;;;;7335114;32;20130;-58
2023/06/16 13:38:35;;;;;;;4.57;3.35;;;28.80;49.20;;;;;;7336077;32;20202;-58
2023/06/16 13:42:37;;;;;;;9.27;3.97;;;29.10;48.90;;;;;;7348830;32;20130;-58
2023/06/16 13:46:39;;;;;;;7.00;3.62;;;29.50;48.10;;;;;;7345089;32;20120;-58
2023/06/16 13:50:44;;;;;;;6.18;3.47;;;29.40;47.90;;;;;;7345784;32;20222;-60
2023/06/16 13:54:46;;;;;;;8.48;3.85;;;29.50;47.50;;;;;;7307265;32;20155;-57
2023/06/16 13:58:48;;;;;;;7.20;3.62;;;29.60;47.70;;;;;;7303690;32;20204;-57
2023/06/16 14:02:49;;;;;;;5.78;3.80;;;30.00;47.70;;;;;;7352149;32;20122;-58
2023/06/16 14:06:51;;;;;;;6.00;3.75;;;29.70;46.10;;;;;;7342340;32;20127;-58
2023/06/16 14:10:55;;;;;;;4.65;3.60;;;29.90;45.20;;;;;;7348101;32;20103;-58
2023/06/16 14:14:57;;;;;;;9.00;6.87;;;30.00;46.90;;;;;;7341860;32;20158;-57
2023/06/16 14:19:01;;;;;;;3.95;3.45;;;30.70;45.60;;;;;;7350910;32;20172;-57
2023/06/16 14:23:03;;;;;;;5.87;3.53;;;31.00;44.20;;;;;;7342789;32;20508;-58
2023/06/16 14:27:05;;;;;;;5.85;3.25;;;31.30;43.50;;;;;;7347670;32;20111;-58
2023/06/16 14:31:09;;;;;;;4.85;3.12;;;31.50;43.40;;;;;;7350080;32;20281;-57
2023/06/16 14:35:11;;;;;;;3.65;2.90;;;31.70;41.50;;;;;;7350371;32;20203;-59
2023/06/16 14:39:13;;;;;;;5.45;3.10;;;31.80;43.00;;;;;;7350649;32;20201;-58
2023/06/16 14:43:15;;;;;;;4.60;3.00;;;31.50;41.30;;;;;;7344402;32;20529;-58
2023/06/16 14:47:16;;;;;;;5.75;3.58;;;31.70;42.70;;;;;;7349279;32;20243;-58
2023/06/16 14:51:18;;;;;;;5.35;3.80;;;31.80;43.50;;;;;;7347049;32;20613;-58
2023/06/16 14:55:20;;;;;;;7.95;3.78;;;32.60;42.60;;;;;;7342362;32;20609;-58
2023/06/16 14:59:22;;;;;;;5.03;3.90;;;32.60;42.00;;;;;;7342773;32;20219;-60
2023/06/16 15:03:23;;;;;;;4.85;3.20;;;32.50;41.50;;;;;;7342317;32;20504;-58
2023/06/16 15:07:25;;;;;;;5.03;4.00;;;32.50;41.30;;;;;;7350471;32;20099;-58
2023/06/16 15:11:27;;;;;;;5.55;3.40;;;31.60;41.60;;;;;;7337546;32;20124;-58
2023/06/16 15:15:29;;;;;;;6.65;3.50;;;31.50;42.30;;;;;;7337220;32;20206;-58
2023/06/16 15:19:31;;;;;;;5.90;3.83;;;31.30;42.00;;;;;;7338806;32;20506;-58
2023/06/16 15:23:33;;;;;;;6.50;3.53;;;31.30;44.00;;;;;;7338015;32;20373;-59
2023/06/16 15:27:37;;;;;;;6.97;3.95;;;30.80;44.20;;;;;;7336120;32;20099;-58
2023/06/16 15:31:39;;;;;;;6.00;3.40;;;29.90;42.90;;;;;;7330326;32;20204;-58
2023/06/16 15:35:41;;;;;;;4.07;3.25;;;28.80;45.50;;;;;;7340625;32;20165;-59
2023/06/16 15:39:42;;;;;;;4.60;3.37;;;28.60;45.80;;;;;;7340143;32;20130;-59
2023/06/16 15:43:44;;;;;;;5.50;4.10;;;28.10;46.40;;;;;;7347316;32;20130;-58
2023/06/16 15:47:46;;;;;;;4.43;3.30;;;27.70;46.20;;;;;;7336468;32;20728;-60
2023/06/16 15:51:48;;;;;;;3.87;2.83;;;27.50;47.50;;;;;;7348134;32;20749;-58
2023/06/16 15:55:50;;;;;;;4.75;3.50;;;27.60;50.70;;;;;;7349029;32;20825;-58
2023/06/16 15:59:51;;;;;;;5.82;3.33;;;27.30;48.30;;;;;;7349515;32;20293;-59
2023/06/16 16:03:53;;;;;;;3.67;3.28;;;27.20;47.90;;;;;;7348920;32;20130;-58
2023/06/16 16:07:55;;;;;;;5.32;3.78;;;27.10;47.90;;;;;;7223758;32;20103;-58
2023/06/16 16:11:58;;;;;;;5.35;3.65;;;26.90;49.30;;;;;;7168616;32;20547;-60
2023/06/16 16:16:00;;;;;;;3.95;3.28;;;26.70;48.90;;;;;;7344286;32;20135;-58
2023/06/16 16:20:03;;;;;;;5.72;3.55;;;26.60;48.60;;;;;;7344443;32;20186;-57
2023/06/16 16:24:09;;;;;;;3.72;3.33;;;26.60;52.10;;;;;;7342996;32;20122;-56
2023/06/16 16:28:11;;;;;;;4.55;3.67;;;26.50;52.00;;;;;;7344823;32;20210;-58
2023/06/16 16:32:12;;;;;;;9.27;3.65;;;26.30;51.90;;;;;;7340765;32;20103;-58
2023/06/16 16:36:15;;;;;;;8.20;7.40;;;25.90;53.90;;;;;;7345662;32;20139;-57
2023/06/16 16:40:17;;;;;;;5.32;3.55;;;25.90;53.80;;;;;;7338540;32;20203;-57
2023/06/16 16:44:21;;;;;;;19.37;17.40;;;25.60;53.10;;;;;;7348656;32;20107;-57
2023/06/16 16:48:23;;;;;;;5.87;4.95;;;25.40;55.90;;;;;;7343689;32;20307;-56
2023/06/16 16:52:25;;;;;;;13.48;11.18;;;25.10;56.70;;;;;;7348947;32;20103;-58
2023/06/16 16:56:27;;;;;;;6.03;4.15;;;25.10;58.60;;;;;;7352833;32;20248;-57
2023/06/16 17:00:28;;;;;;;5.60;3.80;;;25.10;57.80;;;;;;7344768;32;20104;-57
2023/06/16 17:04:30;;;;;;;4.25;3.47;;;25.20;54.60;;;;;;7349134;32;20108;-57
2023/06/16 17:08:32;;;;;;;4.87;3.28;;;25.00;55.60;;;;;;7344393;32;20221;-57
2023/06/16 17:12:34;;;;;;;4.62;3.62;;;25.00;55.90;;;;;;7347864;32;20145;-56
2023/06/16 17:16:36;;;;;;;5.55;3.20;;;24.90;57.70;;;;;;7347300;32;20202;-57
2023/06/16 17:20:38;;;;;;;6.20;3.75;;;24.80;56.90;;;;;;7339192;32;20892;-59
2023/06/16 17:24:39;;;;;;;4.90;3.97;;;24.80;57.90;;;;;;7350279;32;20491;-57
2023/06/16 17:28:41;;;;;;;4.37;3.70;;;24.80;60.10;;;;;;7340950;32;20518;-57
2023/06/16 17:32:43;;;;;;;5.43;3.67;;;24.60;59.90;;;;;;7350389;32;20103;-58
2023/06/16 17:36:45;;;;;;;4.57;3.90;;;24.70;60.80;;;;;;7348906;32;20850;-56
2023/06/16 17:40:47;;;;;;;4.97;4.15;;;24.70;59.10;;;;;;7347431;32;20115;-56
2023/06/16 17:44:49;;;;;;;7.22;4.85;;;24.70;57.90;;;;;;7349919;32;20134;-57
2023/06/16 17:48:51;;;;;;;6.90;4.47;;;24.60;60.30;;;;;;7348192;32;20199;-56
2023/06/16 17:52:52;;;;;;;6.45;3.78;;;24.50;59.20;;;;;;7351588;32;20119;-57
2023/06/16 17:56:55;;;;;;;5.45;3.72;;;24.60;58.60;;;;;;7347374;32;20525;-57
2023/06/16 18:01:00;;;;;;;6.62;3.92;;;24.50;58.70;;;;;;7345294;32;20226;-56
2023/06/16 18:05:02;;;;;;;11.15;9.27;;;24.50;59.80;;;;;;7350945;32;20585;-58
2023/06/16 18:09:04;;;;;;;5.12;4.07;;;24.40;59.70;;;;;;7347050;32;20123;-57
2023/06/16 18:13:06;;;;;;;9.85;3.92;;;24.20;61.20;;;;;;7350809;32;20824;-57
2023/06/16 18:17:08;;;;;;;6.30;4.03;;;24.30;61.00;;;;;;7350733;32;20352;-57
2023/06/16 18:21:10;;;;;;;8.50;3.97;;;24.20;60.10;;;;;;7347624;32;20126;-57
2023/06/16 18:25:12;;;;;;;8.30;5.07;;;24.30;60.50;;;;;;7347681;32;20523;-57
2023/06/16 18:29:14;;;;;;;6.12;4.72;;;24.30;61.30;;;;;;7347158;32;20115;-57
2023/06/16 18:33:16;;;;;;;6.30;4.25;;;24.20;61.20;;;;;;7347145;32;20301;-57
2023/06/16 18:37:18;;;;;;;8.32;5.50;;;24.10;62.70;;;;;;7345381;32;20196;-57
2023/06/16 18:41:20;;;;;;;7.35;5.82;;;24.00;64.50;;;;;;7344404;32;20120;-57
2023/06/16 18:45:22;;;;;;;6.15;3.85;;;24.10;64.50;;;;;;7344660;32;20119;-57
2023/06/16 18:49:23;;;;;;;4.18;3.70;;;23.90;63.60;;;;;;7346429;32;20270;-57
2023/06/16 18:53:26;;;;;;;5.70;4.40;;;23.80;63.40;;;;;;7344100;32;20184;-57
2023/06/16 18:57:27;;;;;;;5.95;3.80;;;23.80;62.80;;;;;;7344152;32;20187;-57
2023/06/16 19:01:29;;;;;;;8.60;5.57;;;23.80;62.70;;;;;;7345047;32;20865;-56
2023/06/16 19:05:32;;;;;;;6.15;3.53;;;23.50;64.50;;;;;;7332842;32;20723;-58
2023/06/16 19:09:35;;;;;;;5.12;3.50;;;23.40;64.90;;;;;;7341433;32;20186;-57
2023/06/16 19:13:37;;;;;;;4.40;3.50;;;23.00;64.90;;;;;;7341012;32;20925;-58
2023/06/16 19:17:39;;;;;;;15.05;13.32;;;22.80;65.30;;;;;;7342630;32;20174;-59
2023/06/16 19:21:41;;;;;;;5.53;3.50;;;22.70;67.30;;;;;;7342213;32;20197;-57
2023/06/16 19:25:43;;;;;;;4.25;3.65;;;22.40;69.10;;;;;;7345711;32;20610;-57
2023/06/16 19:29:45;;;;;;;4.80;3.10;;;22.20;68.00;;;;;;7338202;32;20808;-57
2023/06/16 19:33:48;;;;;;;4.65;3.45;;;22.10;69.70;;;;;;7347590;32;20277;-56
2023/06/16 19:37:50;;;;;;;7.05;3.60;;;21.80;72.40;;;;;;7342100;32;20725;-57
2023/06/16 19:41:52;;;;;;;5.15;3.67;;;21.60;75.60;;;;;;7343375;32;20203;-57
2023/06/16 19:45:54;;;;;;;11.02;8.13;;;21.40;77.60;;;;;;7343724;32;20120;-57
2023/06/16 19:49:55;;;;;;;7.72;4.25;;;21.30;79.60;;;;;;7349982;32;20508;-58
2023/06/16 19:53:57;;;;;;;6.03;3.75;;;21.00;81.00;;;;;;7347500;32;20246;-57
2023/06/16 19:57:59;;;;;;;7.32;4.03;;;20.80;84.80;;;;;;7350648;32;20186;-57
2023/06/16 20:02:01;;;;;;;10.30;3.90;;;20.60;88.80;;;;;;7338909;32;20198;-58
2023/06/16 20:06:03;;;;;;;6.62;3.55;;;20.20;92.60;;;;;;7348289;32;21193;-56
2023/06/16 20:10:05;;;;;;;4.55;3.58;;;20.00;96.00;;;;;;7348454;32;20116;-55
2023/06/16 20:14:07;;;;;;;9.80;3.33;;;19.70;96.80;;;;;;7348296;32;20198;-56
2023/06/16 20:18:09;;;;;;;10.65;3.97;;;19.50;99.70;;;;;;7347413;32;20280;-55
2023/06/16 20:22:11;;;;;;;5.30;4.20;;;19.30;99.90;;;;;;7349026;32;20129;-55
2023/06/16 20:26:12;;;;;;;8.07;3.80;;;19.10;99.90;;;;;;7347406;32;20365;-54
2023/06/16 20:30:15;;;;;;;6.45;4.30;;;18.80;99.90;;;;;;7349192;32;20534;-55
2023/06/16 20:34:16;;;;;;;8.43;3.70;;;18.70;99.90;;;;;;7348098;32;20111;-55
2023/06/16 20:38:19;;;;;;;4.43;3.12;;;18.50;99.90;;;;;;7343890;32;20201;-56
2023/06/16 20:42:22;;;;;;;8.05;3.83;;;18.30;99.90;;;;;;7337791;32;20127;-55
2023/06/16 20:46:24;;;;;;;6.45;3.58;;;18.10;99.90;;;;;;7343661;32;20099;-55
2023/06/16 20:50:27;;;;;;;7.53;3.83;;;17.90;99.90;;;;;;7351813;32;20137;-55
2023/06/16 20:54:29;;;;;;;9.18;3.83;;;17.70;99.90;;;;;;7349202;32;20119;-55
2023/06/16 20:58:35;;;;;;;8.27;3.58;;;17.50;99.90;;;;;;7346396;32;20127;-60
2023/06/16 21:02:38;;;;;;;8.77;3.87;;;17.40;99.90;;;;;;7334487;32;20202;-56